»·PEaware :: BLADE32 KSPS-KSPS

BLADE32 :: KSPS-KSPS

FLIGHT INFORMATION

Flight Status: Arrived
Operator: Unknown
More flights by this operator :: More flights under this callsign
Pilot: 80 FTW ENJJPT (22981)
Aircraft: BEECH AIRCRAFT T-6A TEXAN
(TEX2)
More flights by this aircraft type
Origin: KSPS Sheppard AFB/Wichita Falls Mu
United States
Destination: KSPS Sheppard AFB/Wichita Falls Mu
United States
More flights between these airports :: More routes between these airports
Route: +S1L 4L
File this flight plan on PilotEdge
Remarks:
Altitude:
(Current/Filed)
0ft
Speed:
(Current/Filed)
0kts
Departed: 21-May-20 10:22 AM
Arrived: 21-May-20 11:23 AM
Distance/Time
Traveled:
0nm/1:01
Distance/Time
To Go:
Arrived

Flight Plot

Page will automatically refresh every two minutes.

Flight plan parsing failed; only flown route is shown


Map Options




Map Legend


Flown Route
Filed Route
Departure Airport
Arrival Airport
Navaid (VOR, NDB)
Fix

Horizontal Profiles

Position Reports

Time Latitude Longitude Heading Altitude Ground
Speed
21-May-20 10:20 33.977926 -98.373219 324 5837ft 251kts
21-May-20 10:21 34.030999 -98.410221 328 9982ft 212kts
21-May-20 10:22 34.083291 -98.434502 341 14003ft 211kts
21-May-20 10:23 34.144544 -98.464184 336 14057ft 241kts
21-May-20 10:24 34.205529 -98.491931 343 14009ft 240kts
21-May-20 10:25 34.269091 -98.494429 315 13891ft 242kts
21-May-20 10:26 34.305230 -98.558507 308 14284ft 236kts
21-May-20 10:27 34.342028 -98.627200 298 14070ft 240kts
21-May-20 10:28 34.372019 -98.699721 298 14003ft 242kts
21-May-20 10:29 34.414391 -98.760566 282 13958ft 242kts
21-May-20 10:30 34.393774 -98.832316 245 13849ft 242kts
21-May-20 10:31 34.375439 -98.905939 296 12530ft 231kts
21-May-20 10:32 34.416826 -98.968043 341 11084ft 249kts
21-May-20 10:33 34.407215 -98.966988 161 11132ft 199kts
21-May-20 10:34 34.445571 -98.988528 353 11438ft 244kts
21-May-20 10:35 34.431754 -98.944800 139 11932ft 221kts
21-May-20 10:36 34.388937 -98.893900 141 11994ft 213kts
21-May-20 10:37 34.359277 -98.827192 114 10439ft 234kts
21-May-20 10:38 34.330845 -98.754171 114 7499ft 247kts
21-May-20 10:39 34.303557 -98.680846 116 5029ft 234kts
21-May-20 10:40 34.277350 -98.611949 116 4965ft 223kts
21-May-20 10:41 34.250762 -98.545971 115 4448ft 212kts
21-May-20 10:42 34.205350 -98.505312 174 2871ft 216kts
21-May-20 10:43 34.148829 -98.506956 199 2018ft 194kts
21-May-20 10:44 34.093068 -98.524278 185 2166ft 214kts
21-May-20 10:45 34.035144 -98.510893 158 2052ft 212kts
21-May-20 10:46 34.012658 -98.480825 334 2037ft 164kts
21-May-20 10:47 34.008940 -98.492172 156 1056ft 104kts
21-May-20 10:48 33.981610 -98.456371 74 1989ft 206kts
21-May-20 10:49 34.029992 -98.461240 340 2033ft 214kts
21-May-20 10:50 34.065926 -98.498940 247 2178ft 208kts
21-May-20 10:51 34.014065 -98.494890 158 2073ft 205kts
21-May-20 10:52 34.023339 -98.484696 340 2065ft 126kts
21-May-20 10:53 34.006916 -98.491116 159 1030ft 96kts
21-May-20 10:54 34.006426 -98.478203 350 2216ft 131kts
21-May-20 10:55 34.018888 -98.496719 167 1381ft 115kts
21-May-20 10:56 33.983001 -98.480271 154 1535ft 209kts
21-May-20 10:57 34.007879 -98.449380 332 2093ft 202kts
21-May-20 10:58 34.062796 -98.470231 342 2106ft 209kts
21-May-20 10:59 34.040236 -98.507523 153 2161ft 198kts
21-May-20 11:00 33.988795 -98.481761 159 2093ft 195kts
21-May-20 11:01 33.995453 -98.444641 352 1978ft 190kts
21-May-20 11:02 34.039849 -98.466548 344 2064ft 150kts
21-May-20 11:03 34.090316 -98.488366 333 1704ft 222kts
21-May-20 11:04 34.076275 -98.521080 170 1495ft 157kts
21-May-20 11:05 34.044293 -98.509211 157 1635ft 105kts
21-May-20 11:07 34.017127 -98.496047 158 1272ft 103kts
21-May-20 11:08 33.990810 -98.474173 40 1893ft 162kts
21-May-20 11:09 34.025309 -98.485852 301 2104ft 115kts
21-May-20 11:10 34.000976 -98.488382 158 1207ft 158kts
21-May-20 11:11 33.990402 -98.443029 16 2057ft 202kts
21-May-20 11:12 34.042523 -98.463599 350 2184ft 192kts
21-May-20 11:13 34.065287 -98.496278 253 2055ft 199kts
21-May-20 11:14 34.018034 -98.496495 158 2084ft 200kts
21-May-20 11:15 34.023976 -98.485024 338 2081ft 128kts
21-May-20 11:16 34.005959 -98.490656 154 1071ft 125kts
21-May-20 11:17 33.985657 -98.450023 68 2106ft 204kts
21-May-20 11:18 34.036923 -98.464222 339 2000ft 214kts
21-May-20 11:19 34.058298 -98.505341 202 2077ft 207kts
21-May-20 11:20 34.003212 -98.489558 154 2045ft 202kts
21-May-20 11:21 34.029474 -98.489482 293 1970ft 126kts
21-May-20 11:21 34.008662 -98.491911 158 1023ft 98kts
21-May-20 11:23 33.995733 -98.486614 245 1022ft 0kts

Navigation Log

Ident Type
Flight plan parsing failed, navigation log unavailable